createdAt,value
2018-03-29T00:01:33.076Z,4.40
2018-03-29T00:04:05.725Z,4.40
2018-03-29T00:06:38.191Z,4.30
2018-03-29T00:09:11.420Z,4.30
2018-03-29T00:11:43.911Z,4.30
2018-03-29T00:14:16.304Z,4.30
2018-03-29T00:16:49.008Z,4.20
2018-03-29T00:19:21.430Z,4.20
2018-03-29T00:21:53.953Z,4.20
2018-03-29T00:24:26.489Z,4.10
2018-03-29T00:26:59.120Z,4.10
2018-03-29T00:29:31.680Z,4.10
2018-03-29T00:32:04.399Z,4.10
2018-03-29T00:34:37.017Z,4.10
2018-03-29T00:37:10.276Z,4.10
2018-03-29T00:39:43.004Z,4.00
2018-03-29T00:42:15.487Z,4.00
2018-03-29T00:44:48.666Z,4.00
2018-03-29T00:47:22.622Z,4.10
2018-03-29T00:49:55.025Z,4.00
2018-03-29T00:52:27.698Z,4.00
2018-03-29T00:55:00.057Z,4.10
2018-03-29T00:57:32.593Z,4.10
2018-03-29T01:00:05.032Z,4.10
2018-03-29T01:02:37.566Z,4.00
2018-03-29T01:05:10.041Z,4.00
2018-03-29T01:07:42.477Z,4.00
2018-03-29T01:10:15.101Z,4.00
2018-03-29T01:12:47.815Z,4.00
2018-03-29T01:15:20.365Z,4.00
2018-03-29T01:17:52.801Z,4.00
2018-03-29T01:20:25.413Z,4.00
2018-03-29T01:22:57.783Z,4.00
2018-03-29T01:25:30.220Z,4.00
2018-03-29T01:28:03.441Z,4.00
2018-03-29T01:30:36.761Z,4.00
2018-03-29T01:33:10.665Z,3.90
2018-03-29T01:35:44.007Z,3.90
2018-03-29T01:38:17.304Z,3.80
2018-03-29T01:40:49.753Z,3.80
2018-03-29T01:43:22.361Z,3.80
2018-03-29T01:45:54.855Z,3.70
2018-03-29T01:48:28.868Z,3.70
2018-03-29T01:51:01.572Z,3.70
2018-03-29T01:53:34.236Z,3.70
2018-03-29T01:56:06.870Z,3.70
2018-03-29T01:58:39.397Z,3.80
2018-03-29T02:01:12.566Z,3.80
2018-03-29T02:03:45.286Z,3.70
2018-03-29T02:06:17.983Z,3.80
2018-03-29T02:08:51.087Z,3.80
2018-03-29T02:11:23.763Z,3.80
2018-03-29T02:13:56.220Z,3.90
2018-03-29T02:16:28.588Z,3.90
2018-03-29T02:19:01.233Z,3.90
2018-03-29T02:21:33.606Z,3.90
2018-03-29T02:24:06.027Z,3.90
2018-03-29T02:26:38.608Z,3.90
2018-03-29T02:29:11.010Z,4.00
2018-03-29T02:31:43.454Z,4.00
2018-03-29T02:34:16.753Z,4.00
2018-03-29T02:36:49.980Z,4.10
2018-03-29T02:39:24.113Z,4.00
2018-03-29T02:41:56.613Z,4.00
2018-03-29T02:44:29.389Z,3.90
2018-03-29T02:47:01.916Z,3.90
2018-03-29T02:49:34.642Z,3.80
2018-03-29T02:52:07.156Z,3.80
2018-03-29T02:54:39.868Z,3.80
2018-03-29T02:57:13.213Z,3.80
2018-03-29T02:59:45.612Z,3.80
2018-03-29T03:02:18.810Z,3.90
2018-03-29T03:04:52.064Z,3.90
2018-03-29T03:07:25.238Z,3.90
2018-03-29T03:09:58.423Z,3.90
2018-03-29T03:12:30.840Z,3.90
2018-03-29T03:15:04.165Z,3.90
2018-03-29T03:17:37.440Z,3.90
2018-03-29T03:20:10.893Z,3.90
2018-03-29T03:22:43.521Z,3.90
2018-03-29T03:25:16.088Z,4.00
2018-03-29T03:27:48.579Z,4.00
2018-03-29T03:30:21.152Z,4.00
2018-03-29T03:32:53.882Z,4.00
2018-03-29T03:35:26.258Z,4.00
2018-03-29T03:37:59.663Z,4.00
2018-03-29T03:40:32.174Z,4.00
2018-03-29T03:43:05.522Z,4.00
2018-03-29T03:45:37.986Z,4.10
2018-03-29T03:48:10.302Z,4.10
2018-03-29T03:50:43.057Z,4.10
2018-03-29T03:53:15.930Z,4.10
2018-03-29T03:55:49.222Z,4.10
2018-03-29T03:58:21.572Z,4.10
2018-03-29T04:00:53.962Z,4.10
2018-03-29T04:03:27.075Z,4.10
2018-03-29T04:05:59.846Z,4.10
2018-03-29T04:08:33.091Z,4.10
2018-03-29T04:11:05.468Z,4.10
2018-03-29T04:13:37.998Z,4.10
2018-03-29T04:16:10.507Z,4.00
2018-03-29T04:18:42.878Z,4.00
2018-03-29T04:21:15.442Z,4.00
2018-03-29T04:23:47.933Z,4.00
2018-03-29T04:26:21.112Z,3.90
2018-03-29T04:28:53.544Z,3.90
2018-03-29T04:31:26.862Z,3.90
2018-03-29T04:33:59.316Z,3.90
2018-03-29T04:36:32.081Z,3.90
2018-03-29T04:39:04.670Z,3.90
2018-03-29T04:41:37.058Z,3.90
2018-03-29T04:44:09.546Z,3.90
2018-03-29T04:46:42.971Z,3.90
2018-03-29T04:49:15.582Z,3.90
2018-03-29T04:51:48.146Z,3.90
2018-03-29T04:54:21.381Z,3.90
2018-03-29T04:56:53.741Z,3.90
2018-03-29T04:59:26.307Z,3.90
2018-03-29T05:01:58.957Z,4.00
2018-03-29T05:04:31.397Z,4.00
2018-03-29T05:07:03.857Z,4.00
2018-03-29T05:09:36.507Z,4.00
2018-03-29T05:12:08.843Z,4.00
2018-03-29T05:14:41.214Z,4.00
2018-03-29T05:17:13.577Z,4.00
2018-03-29T05:19:46.241Z,4.00
2018-03-29T05:22:18.897Z,4.00
2018-03-29T05:24:51.438Z,4.00
2018-03-29T05:27:25.042Z,4.10
2018-03-29T05:29:57.995Z,4.00
2018-03-29T05:32:30.554Z,4.10
2018-03-29T05:35:03.001Z,4.10
2018-03-29T05:37:35.586Z,4.10
2018-03-29T05:40:09.681Z,4.20
2018-03-29T05:42:43.058Z,4.20
2018-03-29T05:45:17.016Z,4.20
2018-03-29T05:47:49.482Z,4.20
2018-03-29T05:50:22.267Z,4.20
2018-03-29T05:52:54.851Z,4.20
2018-03-29T05:55:27.972Z,4.40
2018-03-29T05:58:00.460Z,4.30
2018-03-29T06:00:33.833Z,4.40
2018-03-29T06:03:06.426Z,4.40
2018-03-29T06:05:38.921Z,4.50
2018-03-29T06:08:11.522Z,4.60
2018-03-29T06:10:44.038Z,4.60
2018-03-29T06:13:16.628Z,4.60
2018-03-29T06:15:55.918Z,4.70
2018-03-29T06:18:31.478Z,4.70
2018-03-29T06:21:04.616Z,4.70
2018-03-29T06:23:37.746Z,4.80
2018-03-29T06:26:10.227Z,4.80
2018-03-29T06:28:42.959Z,4.80
2018-03-29T06:31:15.532Z,4.70
2018-03-29T06:33:48.133Z,4.70
2018-03-29T06:36:20.772Z,4.80
2018-03-29T06:38:53.528Z,4.80
2018-03-29T06:41:26.106Z,4.90
2018-03-29T06:43:58.700Z,4.90
2018-03-29T06:46:32.038Z,5.00
2018-03-29T06:49:04.846Z,5.00
2018-03-29T06:51:37.377Z,5.00
2018-03-29T06:54:09.854Z,5.00
2018-03-29T06:56:49.776Z,5.10
2018-03-29T06:59:22.401Z,5.20
2018-03-29T07:01:56.529Z,5.20
2018-03-29T07:04:29.427Z,5.20
2018-03-29T07:07:02.122Z,5.20
2018-03-29T07:09:34.803Z,5.20
2018-03-29T07:12:07.338Z,5.20
2018-03-29T07:14:40.458Z,5.30
2018-03-29T07:17:13.296Z,5.30
2018-03-29T07:19:45.818Z,5.30
2018-03-29T07:22:18.401Z,5.40
2018-03-29T07:24:50.819Z,5.50
2018-03-29T07:27:23.304Z,5.50
2018-03-29T07:29:55.805Z,5.60
2018-03-29T07:32:29.133Z,5.70
2018-03-29T07:35:01.680Z,5.70
2018-03-29T07:37:34.134Z,5.70
2018-03-29T07:40:06.772Z,5.70
2018-03-29T07:42:39.884Z,5.80
2018-03-29T07:45:12.278Z,5.80
2018-03-29T07:47:44.707Z,5.80
2018-03-29T07:50:17.893Z,5.80
2018-03-29T07:52:50.363Z,5.80
2018-03-29T07:55:23.055Z,5.80
2018-03-29T07:57:55.653Z,5.80
2018-03-29T08:00:28.085Z,5.80
2018-03-29T08:03:00.787Z,5.80
2018-03-29T08:05:33.334Z,5.90
2018-03-29T08:08:05.884Z,6.00
2018-03-29T08:10:39.211Z,6.30
2018-03-29T08:13:11.736Z,6.30
2018-03-29T08:15:51.275Z,6.30
2018-03-29T08:18:23.703Z,6.50
2018-03-29T08:20:56.181Z,6.50
2018-03-29T08:23:28.766Z,6.60
2018-03-29T08:26:02.057Z,6.60
2018-03-29T08:28:34.825Z,6.60
2018-03-29T08:31:07.399Z,6.60
2018-03-29T08:33:39.942Z,6.60
2018-03-29T08:36:12.662Z,6.50
2018-03-29T08:38:45.141Z,6.60
2018-03-29T08:41:17.848Z,6.60
2018-03-29T08:43:50.226Z,6.70
2018-03-29T08:46:23.589Z,6.70
2018-03-29T08:48:56.218Z,6.60
2018-03-29T08:51:29.042Z,6.60
2018-03-29T08:54:01.637Z,6.50
2018-03-29T08:56:34.418Z,6.50
2018-03-29T08:59:06.933Z,6.50
2018-03-29T09:01:39.504Z,6.50
2018-03-29T09:04:12.154Z,6.50
2018-03-29T09:06:44.820Z,6.50
2018-03-29T09:09:18.911Z,6.70
2018-03-29T09:11:51.597Z,6.60
2018-03-29T09:14:24.466Z,6.70
2018-03-29T09:16:57.152Z,6.90
2018-03-29T09:19:29.727Z,7.00
2018-03-29T09:22:02.425Z,7.20
2018-03-29T09:24:35.927Z,7.30
2018-03-29T09:27:09.314Z,7.30
2018-03-29T09:29:42.512Z,7.40
2018-03-29T09:32:15.594Z,7.40
2018-03-29T09:34:48.792Z,7.50
2018-03-29T09:37:21.942Z,7.50
2018-03-29T09:39:54.589Z,7.50
2018-03-29T09:42:27.202Z,7.50
2018-03-29T09:45:00.153Z,7.50
2018-03-29T09:47:32.761Z,7.50
2018-03-29T09:50:05.322Z,7.40
2018-03-29T09:52:38.002Z,7.50
2018-03-29T09:55:10.742Z,7.60
2018-03-29T09:57:43.329Z,7.70
2018-03-29T10:00:16.548Z,7.80
2018-03-29T10:02:54.107Z,7.70
2018-03-29T10:05:32.846Z,7.60
2018-03-29T10:08:05.392Z,7.60
2018-03-29T10:10:37.952Z,7.40
2018-03-29T10:13:10.533Z,7.30
2018-03-29T10:15:43.037Z,7.10
2018-03-29T10:18:15.580Z,6.90
2018-03-29T10:20:48.298Z,6.80
2018-03-29T10:23:20.719Z,6.80
2018-03-29T10:25:53.118Z,6.70
2018-03-29T10:28:25.625Z,6.70
2018-03-29T10:30:58.984Z,6.50
2018-03-29T10:33:32.177Z,6.30
2018-03-29T10:36:04.877Z,6.30
2018-03-29T10:38:37.554Z,6.00
2018-03-29T10:41:11.508Z,5.60
2018-03-29T10:43:44.118Z,5.60
2018-03-29T10:46:16.667Z,5.50
2018-03-29T10:48:49.154Z,5.50
2018-03-29T10:51:23.109Z,5.50
2018-03-29T10:53:55.594Z,5.50
2018-03-29T10:56:28.097Z,5.50
2018-03-29T10:59:01.214Z,5.50
2018-03-29T11:01:34.028Z,5.40
2018-03-29T11:04:06.718Z,5.40
2018-03-29T11:06:39.209Z,5.50
2018-03-29T11:09:11.971Z,5.60
2018-03-29T11:11:44.538Z,5.80
2018-03-29T11:14:17.175Z,5.90
2018-03-29T11:16:49.909Z,6.00
2018-03-29T11:19:22.542Z,6.20
2018-03-29T11:21:55.111Z,6.30
2018-03-29T11:24:27.662Z,6.50
2018-03-29T11:27:00.153Z,6.90
2018-03-29T11:29:32.788Z,7.20
2018-03-29T11:32:06.136Z,7.60
2018-03-29T11:34:38.655Z,7.60
2018-03-29T11:37:11.452Z,7.80
2018-03-29T11:39:43.974Z,8.00
2018-03-29T11:42:16.507Z,8.20
2018-03-29T11:44:49.157Z,8.20
2018-03-29T11:47:22.017Z,8.20
2018-03-29T11:49:54.779Z,8.20
2018-03-29T11:52:27.834Z,8.30
2018-03-29T11:55:00.329Z,8.20
2018-03-29T11:57:32.879Z,8.00
2018-03-29T12:00:05.991Z,7.80
2018-03-29T12:02:38.696Z,7.80
2018-03-29T12:05:11.232Z,7.90
2018-03-29T12:07:44.221Z,7.90
2018-03-29T12:10:16.863Z,7.90
2018-03-29T12:12:50.384Z,7.80
2018-03-29T12:15:22.892Z,7.70
2018-03-29T12:17:56.027Z,7.60
2018-03-29T12:20:29.151Z,7.60
2018-03-29T12:23:02.372Z,7.60
2018-03-29T12:25:35.732Z,7.90
2018-03-29T12:28:08.311Z,7.90
2018-03-29T12:30:40.657Z,8.20
2018-03-29T12:33:13.054Z,8.30
2018-03-29T12:35:45.653Z,8.30
2018-03-29T12:38:18.317Z,8.30
2018-03-29T12:40:51.663Z,8.00
2018-03-29T12:43:24.505Z,8.00
2018-03-29T12:45:57.864Z,8.50
2018-03-29T12:48:30.819Z,8.50
2018-03-29T12:51:03.530Z,8.90
2018-03-29T12:53:36.273Z,9.40
2018-03-29T12:56:18.177Z,9.80
2018-03-29T12:58:50.744Z,10.20
2018-03-29T13:01:23.314Z,10.50
2018-03-29T13:03:55.897Z,10.90
2018-03-29T13:06:28.612Z,11.40
2018-03-29T13:09:01.183Z,11.50
2018-03-29T13:11:33.808Z,11.60
2018-03-29T13:14:06.312Z,12.00
2018-03-29T13:16:39.192Z,12.10
2018-03-29T13:19:11.718Z,12.40
2018-03-29T13:21:44.084Z,12.20
2018-03-29T13:24:17.262Z,12.40
2018-03-29T13:26:50.021Z,12.30
2018-03-29T13:29:22.597Z,12.00
2018-03-29T13:32:02.096Z,11.80
2018-03-29T13:34:34.533Z,11.70
2018-03-29T13:37:07.700Z,11.40
2018-03-29T13:39:41.147Z,11.30
2018-03-29T13:42:13.623Z,11.30
2018-03-29T13:44:46.204Z,11.30
2018-03-29T13:47:18.962Z,11.10
2018-03-29T13:49:51.603Z,11.10
2018-03-29T13:52:24.214Z,11.20
2018-03-29T13:54:56.579Z,11.30
2018-03-29T13:57:29.833Z,11.60
2018-03-29T14:00:02.718Z,11.60
2018-03-29T14:02:35.317Z,11.30
2018-03-29T14:05:07.884Z,10.90
2018-03-29T14:07:40.670Z,10.70
2018-03-29T14:10:13.314Z,10.60
2018-03-29T14:12:45.989Z,10.60
2018-03-29T14:15:18.559Z,10.80
2018-03-29T14:17:51.168Z,10.90
2018-03-29T14:20:23.854Z,10.90
2018-03-29T14:22:56.644Z,10.70
2018-03-29T14:25:29.223Z,10.60
2018-03-29T14:28:02.054Z,10.40
2018-03-29T14:30:34.817Z,10.30
2018-03-29T14:33:07.623Z,10.00
2018-03-29T14:35:40.088Z,9.80
2018-03-29T14:38:12.597Z,10.10
2018-03-29T14:40:45.398Z,10.80
2018-03-29T14:43:17.904Z,11.60
2018-03-29T14:45:50.587Z,12.10
2018-03-29T14:48:23.242Z,12.70
2018-03-29T14:50:56.048Z,13.00
2018-03-29T14:53:28.646Z,13.10
2018-03-29T14:56:01.497Z,13.20
2018-03-29T14:58:34.207Z,12.90
2018-03-29T15:01:06.991Z,12.70
2018-03-29T15:03:40.297Z,12.60
2018-03-29T15:06:13.103Z,12.60
2018-03-29T15:08:45.709Z,12.60
2018-03-29T15:11:18.318Z,12.60
2018-03-29T15:13:50.825Z,12.80
2018-03-29T15:16:23.462Z,12.80
2018-03-29T15:18:56.261Z,13.00
2018-03-29T15:21:29.588Z,13.00
2018-03-29T15:24:02.268Z,13.00
2018-03-29T15:26:35.137Z,12.90
2018-03-29T15:29:08.509Z,12.50
2018-03-29T15:31:41.253Z,12.50
2018-03-29T15:34:15.309Z,11.70
2018-03-29T15:36:47.786Z,11.70
2018-03-29T15:39:20.513Z,11.60
2018-03-29T15:41:53.022Z,11.20
2018-03-29T15:44:25.815Z,10.70
2018-03-29T15:46:58.442Z,10.10
2018-03-29T15:49:31.247Z,9.50
2018-03-29T15:52:04.109Z,9.00
2018-03-29T15:54:37.262Z,8.70
2018-03-29T15:57:10.570Z,8.70
2018-03-29T15:59:43.007Z,8.70
2018-03-29T16:02:15.728Z,9.10
2018-03-29T16:04:48.300Z,9.80
2018-03-29T16:07:21.131Z,10.40
2018-03-29T16:09:53.649Z,11.00
2018-03-29T16:12:26.474Z,11.50
2018-03-29T16:14:58.954Z,11.80
2018-03-29T16:17:31.572Z,12.20
2018-03-29T16:20:04.129Z,13.20
2018-03-29T16:22:36.932Z,14.30
2018-03-29T16:25:09.429Z,15.20
2018-03-29T16:27:42.117Z,16.10
2018-03-29T16:30:14.912Z,16.20
2018-03-29T16:32:47.615Z,15.80
2018-03-29T16:35:19.968Z,14.50
2018-03-29T16:37:52.575Z,12.90
2018-03-29T16:40:25.048Z,12.00
2018-03-29T16:42:57.877Z,11.80
2018-03-29T16:45:30.399Z,12.10
2018-03-29T16:48:03.162Z,12.10
2018-03-29T16:50:35.779Z,12.10
2018-03-29T16:53:09.147Z,11.60
2018-03-29T16:55:41.534Z,11.10
2018-03-29T16:58:14.123Z,10.50
2018-03-29T17:00:46.680Z,10.00
2018-03-29T17:03:20.283Z,9.10
2018-03-29T17:05:52.844Z,9.10
2018-03-29T17:08:25.279Z,8.70
2018-03-29T17:10:57.962Z,8.40
2018-03-29T17:13:30.811Z,8.20
2018-03-29T17:16:04.012Z,7.80
2018-03-29T17:18:36.874Z,7.80
2018-03-29T17:21:09.710Z,7.70
2018-03-29T17:23:43.127Z,7.50
2018-03-29T17:26:15.904Z,7.50
2018-03-29T17:28:48.329Z,7.30
2018-03-29T17:31:20.933Z,7.20
2018-03-29T17:33:54.045Z,7.00
2018-03-29T17:36:27.477Z,6.90
2018-03-29T17:38:59.964Z,6.90
2018-03-29T17:41:32.469Z,6.80
2018-03-29T17:44:04.982Z,6.70
2018-03-29T17:46:37.563Z,6.60
2018-03-29T17:49:10.010Z,6.50
2018-03-29T17:51:42.653Z,6.40
2018-03-29T17:54:15.214Z,6.30
2018-03-29T17:56:47.912Z,6.10
2018-03-29T17:59:21.344Z,5.90
2018-03-29T18:01:54.096Z,5.80
2018-03-29T18:04:26.658Z,5.80
2018-03-29T18:06:59.437Z,5.60
2018-03-29T18:09:31.949Z,5.50
2018-03-29T18:12:04.648Z,5.40
2018-03-29T18:14:37.274Z,5.30
2018-03-29T18:17:09.803Z,5.20
2018-03-29T18:19:43.019Z,5.10
2018-03-29T18:22:16.325Z,4.90
2018-03-29T18:24:48.974Z,4.90
2018-03-29T18:27:21.509Z,4.80
2018-03-29T18:29:54.889Z,4.70
2018-03-29T18:32:27.552Z,4.70
2018-03-29T18:35:00.237Z,4.70
2018-03-29T18:37:33.017Z,4.60
2018-03-29T18:40:05.509Z,4.50
2018-03-29T18:42:38.241Z,4.50
2018-03-29T18:45:11.128Z,4.40
2018-03-29T18:47:43.588Z,4.40
2018-03-29T18:50:16.333Z,4.30
2018-03-29T18:52:49.569Z,4.30
2018-03-29T18:55:22.733Z,4.20
2018-03-29T18:57:55.243Z,4.10
2018-03-29T19:00:27.917Z,4.10
2018-03-29T19:03:00.750Z,4.00
2018-03-29T19:05:34.308Z,3.90
2018-03-29T19:08:06.930Z,3.90
2018-03-29T19:10:39.699Z,3.90
2018-03-29T19:13:12.134Z,3.80
2018-03-29T19:15:44.802Z,3.80
2018-03-29T19:18:17.471Z,3.70
2018-03-29T19:20:50.084Z,3.60
2018-03-29T19:23:22.684Z,3.50
2018-03-29T19:25:55.344Z,3.50
2018-03-29T19:28:27.796Z,3.40
2018-03-29T19:31:01.195Z,3.30
2018-03-29T19:33:34.922Z,3.30
2018-03-29T19:36:07.499Z,3.30
2018-03-29T19:38:40.250Z,3.20
2018-03-29T19:41:12.959Z,3.20
2018-03-29T19:43:46.247Z,3.10
2018-03-29T19:46:18.877Z,3.20
2018-03-29T19:48:51.384Z,3.10
2018-03-29T19:51:25.058Z,3.00
2018-03-29T19:53:57.739Z,2.90
2018-03-29T19:56:30.288Z,2.90
2018-03-29T19:59:03.082Z,2.90
2018-03-29T20:01:35.699Z,2.80
2018-03-29T20:04:08.374Z,2.80
2018-03-29T20:06:40.913Z,2.70
2018-03-29T20:09:13.681Z,2.70
2018-03-29T20:11:46.270Z,2.60
2018-03-29T20:14:19.079Z,2.60
2018-03-29T20:16:51.696Z,2.60
2018-03-29T20:19:25.109Z,2.60
2018-03-29T20:21:57.705Z,2.50
2018-03-29T20:24:30.388Z,2.60
2018-03-29T20:27:03.049Z,2.60
2018-03-29T20:29:35.830Z,2.60
2018-03-29T20:32:08.312Z,2.60
2018-03-29T20:34:41.125Z,2.50
2018-03-29T20:37:13.706Z,2.50
2018-03-29T20:39:46.670Z,2.40
2018-03-29T20:42:19.299Z,2.40
2018-03-29T20:44:51.824Z,2.30
2018-03-29T20:47:24.558Z,2.30
2018-03-29T20:49:57.080Z,2.30
2018-03-29T20:52:29.659Z,2.30
2018-03-29T20:55:02.465Z,2.30
2018-03-29T20:57:35.171Z,2.30
2018-03-29T21:00:07.813Z,2.30
2018-03-29T21:02:41.265Z,2.10
2018-03-29T21:05:13.869Z,2.10
2018-03-29T21:07:47.107Z,2.10
2018-03-29T21:10:19.814Z,2.10
2018-03-29T21:12:52.387Z,2.10
2018-03-29T21:15:25.194Z,2.00
2018-03-29T21:17:57.675Z,2.00
2018-03-29T21:20:30.425Z,2.00
2018-03-29T21:23:03.383Z,2.00
2018-03-29T21:25:36.038Z,2.00
2018-03-29T21:28:08.719Z,2.00
2018-03-29T21:30:41.277Z,2.00
2018-03-29T21:33:14.036Z,2.00
2018-03-29T21:35:46.605Z,2.00
2018-03-29T21:38:20.074Z,2.00
2018-03-29T21:40:52.736Z,2.00
2018-03-29T21:43:25.256Z,2.00
2018-03-29T21:45:58.661Z,2.00
2018-03-29T21:48:31.185Z,2.00
2018-03-29T21:51:03.922Z,2.00
2018-03-29T21:53:36.501Z,2.00
2018-03-29T21:56:09.309Z,2.00
2018-03-29T21:58:41.903Z,2.00
2018-03-29T22:01:14.905Z,1.90
2018-03-29T22:03:47.455Z,1.80
2018-03-29T22:06:20.316Z,1.80
2018-03-29T22:08:52.919Z,1.80
2018-03-29T22:11:25.673Z,1.70
2018-03-29T22:13:58.192Z,1.60
2018-03-29T22:16:30.902Z,1.60
2018-03-29T22:19:04.609Z,1.50
2018-03-29T22:21:37.371Z,1.50
2018-03-29T22:24:10.044Z,1.50
2018-03-29T22:26:43.540Z,1.60
2018-03-29T22:29:18.406Z,1.60
2018-03-29T22:31:50.817Z,1.50
2018-03-29T22:34:23.556Z,1.50
2018-03-29T22:36:56.364Z,1.50
2018-03-29T22:39:28.829Z,1.50
2018-03-29T22:42:01.258Z,1.50
2018-03-29T22:44:33.649Z,1.50
2018-03-29T22:47:07.720Z,1.40
2018-03-29T22:49:41.051Z,1.40
2018-03-29T22:52:14.360Z,1.40
2018-03-29T22:54:47.114Z,1.40
2018-03-29T22:57:19.736Z,1.40
2018-03-29T22:59:52.238Z,1.50
2018-03-29T23:02:24.846Z,1.50
2018-03-29T23:04:57.489Z,1.50
2018-03-29T23:07:30.845Z,1.50
2018-03-29T23:10:03.508Z,1.50
2018-03-29T23:12:37.729Z,1.40
2018-03-29T23:15:11.119Z,1.30
2018-03-29T23:17:43.503Z,1.30
2018-03-29T23:20:16.193Z,1.30
2018-03-29T23:22:49.554Z,1.30
2018-03-29T23:25:22.612Z,1.30
2018-03-29T23:27:55.156Z,1.30
2018-03-29T23:30:27.701Z,1.30
2018-03-29T23:33:00.345Z,1.30
2018-03-29T23:35:32.704Z,1.30
2018-03-29T23:38:05.202Z,1.30
2018-03-29T23:40:38.505Z,1.30
2018-03-29T23:43:11.093Z,1.20
2018-03-29T23:45:43.716Z,1.30
2018-03-29T23:48:16.366Z,1.30
2018-03-29T23:50:49.505Z,1.20
2018-03-29T23:53:22.845Z,1.30
2018-03-29T23:55:55.530Z,1.20
2018-03-29T23:58:28.191Z,1.20
